Time;durP1;ratioP1;P1;durP2;ratioP2;P2;SDS_P1;SDS_P2;PMS_P1;PMS_P2;Temp;Humidity;BMP_temperature;BMP_pressure;BME280_temperature;BME280_humidity;BME280_pressure;Samples;Min_cycle;Max_cycle;Signal;HPM_P1;HPM_P2
2023/01/22 00:01:09;;;;;;;20.70;13.07;;;;;;;-1.37;100.00;96743.53;5029562;28;104323;-72
2023/01/22 00:03:37;;;;;;;22.00;13.60;;;;;;;-1.40;100.00;96749.09;5030261;28;101861;-72
2023/01/22 00:06:05;;;;;;;21.93;13.63;;;;;;;-1.48;100.00;96749.09;5030426;28;105655;-72
2023/01/22 00:08:34;;;;;;;19.93;13.37;;;;;;;-1.45;100.00;96751.41;5029054;28;105812;-72
2023/01/22 00:11:02;;;;;;;18.43;13.13;;;;;;;-1.39;100.00;96745.50;5029923;28;102109;-72
2023/01/22 00:13:30;;;;;;;21.27;13.20;;;;;;;-1.44;100.00;96739.97;5030252;28;105492;-72
2023/01/22 00:15:58;;;;;;;22.90;12.97;;;;;;;-1.41;100.00;96747.47;5029667;28;105639;-72
2023/01/22 00:18:26;;;;;;;22.10;13.60;;;;;;;-1.41;100.00;96739.66;5029535;28;105278;-72
2023/01/22 00:20:54;;;;;;;21.17;13.50;;;;;;;-1.45;100.00;96746.19;5032218;28;105192;-72
2023/01/22 00:23:23;;;;;;;21.67;13.97;;;;;;;-1.30;100.00;96746.28;5029493;27;101915;-72
2023/01/22 00:26:01;;;;;;;20.73;13.03;;;;;;;-1.41;100.00;96741.44;5030003;28;105424;-72
2023/01/22 00:28:28;;;;;;;20.80;14.17;;;;;;;-1.34;100.00;96745.00;5029269;28;105646;-72
2023/01/22 00:31:00;;;;;;;21.90;13.83;;;;;;;-1.34;100.00;96750.22;5029483;27;101917;-72
2023/01/22 00:33:28;;;;;;;22.03;13.90;;;;;;;-1.47;100.00;96742.13;5030236;28;104027;-72
2023/01/22 00:35:56;;;;;;;20.83;12.97;;;;;;;-1.39;100.00;96748.13;5028758;27;101826;-72
2023/01/22 00:38:23;;;;;;;20.73;13.37;;;;;;;-1.43;100.00;96752.03;5029691;28;102188;-72
2023/01/22 00:40:51;;;;;;;22.93;14.40;;;;;;;-1.50;100.00;96753.69;5029852;28;105367;-72
2023/01/22 00:43:19;;;;;;;19.37;13.67;;;;;;;-1.46;100.00;96748.94;5032106;28;105433;-72
2023/01/22 00:45:47;;;;;;;20.47;13.30;;;;;;;-1.38;100.00;96752.34;5029664;28;105602;-72
2023/01/22 00:48:13;;;;;;;20.47;13.83;;;;;;;-1.30;100.00;96754.94;5029016;28;105438;-72
2023/01/22 00:50:40;;;;;;;21.57;13.47;;;;;;;-1.33;100.00;96747.44;5029210;28;101860;-72
2023/01/22 00:53:07;;;;;;;20.67;13.37;;;;;;;-1.27;100.00;96759.81;5029167;28;105209;-72
2023/01/22 00:55:35;;;;;;;21.13;13.37;;;;;;;-1.19;100.00;96762.41;5029018;28;106758;-72
2023/01/22 00:58:03;;;;;;;21.73;13.97;;;;;;;-1.22;100.00;96756.72;5029112;28;101871;-72
2023/01/22 01:00:32;;;;;;;21.10;14.10;;;;;;;-1.16;100.00;96759.44;5029540;28;105136;-72
2023/01/22 01:05:43;;;;;;;20.10;13.20;;;;;;;-1.17;100.00;96749.16;5032827;28;101776;-72
2023/01/22 01:08:10;;;;;;;21.97;13.67;;;;;;;-1.13;100.00;96760.91;5028724;28;106024;-72
2023/01/22 01:10:38;;;;;;;21.40;13.53;;;;;;;-1.18;100.00;96745.75;5029407;27;102023;-72
2023/01/22 01:13:08;;;;;;;21.83;13.77;;;;;;;-1.25;100.00;96750.03;5029113;28;105146;-72
2023/01/22 01:15:35;;;;;;;21.43;14.13;;;;;;;-1.18;100.00;96750.16;5028590;28;105287;-72
2023/01/22 01:18:04;;;;;;;24.60;14.43;;;;;;;-1.17;100.00;96757.00;5028038;28;102006;-72
2023/01/22 01:20:31;;;;;;;22.43;14.33;;;;;;;-1.26;100.00;96758.03;5030539;28;103020;-72
2023/01/22 01:22:58;;;;;;;21.77;14.40;;;;;;;-1.15;100.00;96758.44;5028843;28;105463;-72
2023/01/22 01:25:25;;;;;;;24.03;15.23;;;;;;;-1.16;100.00;96762.06;5034178;28;102183;-72
2023/01/22 01:27:52;;;;;;;23.63;14.90;;;;;;;-1.17;100.00;96751.78;5028071;28;105628;-72
2023/01/22 01:30:23;;;;;;;24.10;14.83;;;;;;;-1.16;100.00;96753.44;5028903;28;101900;-72
2023/01/22 01:32:50;;;;;;;26.13;15.37;;;;;;;-1.32;100.00;96750.88;5028562;28;104896;-72
2023/01/22 01:35:19;;;;;;;23.43;15.27;;;;;;;-1.29;100.00;96745.31;5028646;28;105089;-72
2023/01/22 01:37:47;;;;;;;24.40;15.70;;;;;;;-1.25;100.00;96744.81;5030642;27;102057;-72
2023/01/22 01:40:15;;;;;;;25.20;16.30;;;;;;;-1.21;100.00;96753.91;5028674;28;105320;-71
2023/01/22 01:42:43;;;;;;;26.53;16.93;;;;;;;-1.34;100.00;96748.44;5028187;28;105858;-71
2023/01/22 01:45:27;;;;;;;23.83;14.77;;;;;;;-1.34;100.00;96747.59;5030265;28;102223;-71
2023/01/22 01:48:01;;;;;;;24.37;15.93;;;;;;;-1.52;100.00;96753.06;5031719;28;105673;-72
2023/01/22 01:50:29;;;;;;;25.20;15.73;;;;;;;-1.43;100.00;96748.63;5028944;28;101876;-71
2023/01/22 01:53:00;;;;;;;25.50;16.00;;;;;;;-1.51;100.00;96748.63;5028632;28;105327;-72
2023/01/22 01:55:31;;;;;;;26.67;16.80;;;;;;;-1.42;100.00;96756.25;5028175;28;104557;-72
2023/01/22 01:58:04;;;;;;;27.73;17.57;;;;;;;-1.32;100.00;96756.09;5028564;28;101859;-72
2023/01/22 02:00:36;;;;;;;24.00;16.23;;;;;;;-1.28;100.00;96757.34;5028417;28;105141;-72
2023/01/22 02:03:04;;;;;;;27.17;17.17;;;;;;;-1.27;100.00;96759.00;5028381;28;105759;-72
2023/01/22 02:05:36;;;;;;;27.93;16.70;;;;;;;-1.26;100.00;96761.44;5027915;28;102198;-72
2023/01/22 02:08:07;;;;;;;25.50;16.23;;;;;;;-1.37;100.00;96751.34;5028316;28;105552;-71
2023/01/22 02:10:34;;;;;;;24.67;16.20;;;;;;;-1.42;100.00;96756.25;5031529;28;105028;-72
2023/01/22 02:13:08;;;;;;;24.87;14.90;;;;;;;-1.38;100.00;96756.75;5028308;28;104815;-71
2023/01/22 02:15:39;;;;;;;27.80;15.93;;;;;;;-1.46;100.00;96755.00;5029125;28;102791;-71
2023/01/22 02:18:07;;;;;;;28.83;16.77;;;;;;;-1.36;100.00;96750.41;5028794;27;101885;-71
2023/01/22 02:20:39;;;;;;;28.77;16.53;;;;;;;-1.55;100.00;96753.38;5028193;28;105209;-71
2023/01/22 02:23:08;;;;;;;29.57;17.33;;;;;;;-1.41;100.00;96763.13;5026997;28;105451;-71
2023/01/22 02:25:35;;;;;;;29.27;16.73;;;;;;;-1.54;100.00;96756.81;5028373;28;101848;-71
2023/01/22 02:28:02;;;;;;;23.70;16.40;;;;;;;-1.47;100.00;96755.16;5028055;28;104852;-71
2023/01/22 02:30:29;;;;;;;28.97;17.57;;;;;;;-1.38;100.00;96754.16;5027776;28;105423;-71
2023/01/22 02:32:57;;;;;;;28.83;18.57;;;;;;;-1.36;100.00;96758.22;5031482;28;101956;-71
2023/01/22 02:35:25;;;;;;;29.63;18.03;;;;;;;-1.33;100.00;96754.44;5027585;28;105790;-71
2023/01/22 02:37:53;;;;;;;27.40;16.93;;;;;;;-1.35;100.00;96757.25;5027990;28;101942;-71
2023/01/22 02:40:21;;;;;;;28.10;17.77;;;;;;;-1.24;100.00;96754.25;5027924;28;105357;-71
2023/01/22 02:42:48;;;;;;;28.50;17.90;;;;;;;-1.28;100.00;96755.56;5026969;28;105295;-71
2023/01/22 02:45:15;;;;;;;28.17;17.97;;;;;;;-1.28;100.00;96758.19;5027500;28;101870;-71
2023/01/22 02:47:42;;;;;;;29.50;17.93;;;;;;;-1.24;100.00;96763.88;5027749;28;104928;-71
2023/01/22 02:50:12;;;;;;;29.30;17.60;;;;;;;-1.20;100.00;96754.75;5027430;28;104761;-71
2023/01/22 02:52:39;;;;;;;27.00;16.83;;;;;;;-1.28;100.00;96760.78;5027722;28;102132;-71
2023/01/22 02:55:08;;;;;;;25.60;16.73;;;;;;;-1.26;100.00;96753.59;5030858;28;105038;-71
2023/01/22 02:57:35;;;;;;;28.70;17.13;;;;;;;-1.36;100.00;96760.84;5027983;28;102692;-71
2023/01/22 03:00:05;;;;;;;29.77;16.63;;;;;;;-1.36;100.00;96760.84;5027909;28;104917;-71
2023/01/22 03:02:32;;;;;;;26.77;16.40;;;;;;;-1.35;100.00;96762.47;5027021;28;105066;-71
2023/01/22 03:05:03;;;;;;;26.63;17.17;;;;;;;-1.29;100.00;96760.97;5027864;28;102077;-71
2023/01/22 03:07:41;;;;;;;26.97;16.27;;;;;;;-1.33;100.00;96760.47;5027048;28;104948;-71
2023/01/22 03:10:15;;;;;;;27.97;17.67;;;;;;;-1.32;100.00;96763.91;5027594;28;105632;-71
2023/01/22 03:21:17;;;;;;;30.27;17.67;;;;;;;-1.42;100.00;96779.72;5027393;28;104729;-71
2023/01/22 03:23:46;;;;;;;32.47;19.20;;;;;;;-1.40;100.00;96779.56;5022216;27;105747;-71
2023/01/22 03:26:15;;;;;;;29.47;18.47;;;;;;;-1.40;100.00;96779.56;5027571;27;102146;-71
2023/01/22 03:28:44;;;;;;;31.20;17.87;;;;;;;-1.34;100.00;96784.13;5030288;28;105263;-71
2023/01/22 03:31:12;;;;;;;29.93;17.67;;;;;;;-1.20;100.00;96784.22;5029550;28;105054;-71
2023/01/22 03:33:44;;;;;;;29.47;17.57;;;;;;;-1.36;100.00;96786.91;5030048;28;101813;-71
2023/01/22 03:36:14;;;;;;;29.60;18.43;;;;;;;-1.46;100.00;96786.28;5030830;28;104907;-71
2023/01/22 03:38:46;;;;;;;28.13;17.10;;;;;;;-1.40;100.00;96785.63;5033782;27;103471;-71
2023/01/22 03:41:19;;;;;;;31.80;18.27;;;;;;;-1.42;100.00;96787.56;5030572;28;105209;-71
2023/01/22 03:43:48;;;;;;;30.47;18.07;;;;;;;-1.38;100.00;96783.66;5029968;28;105553;-71
2023/01/22 03:46:19;;;;;;;29.80;17.80;;;;;;;-1.54;100.00;96783.69;5029683;28;101844;-71
2023/01/22 03:48:53;;;;;;;29.33;17.87;;;;;;;-1.57;100.00;96794.47;5030211;28;105432;-71
2023/01/22 03:51:22;;;;;;;28.03;17.33;;;;;;;-1.80;100.00;96782.25;5029898;28;105129;-71
2023/01/22 03:53:51;;;;;;;25.77;16.60;;;;;;;-1.88;100.00;96790.06;5030425;28;102041;-71
2023/01/22 03:56:21;;;;;;;24.70;16.33;;;;;;;-1.91;100.00;96786.00;5030288;28;104838;-71
2023/01/22 03:58:49;;;;;;;29.97;16.83;;;;;;;-1.95;100.00;96784.72;5030098;28;105529;-71
2023/01/22 04:01:20;;;;;;;25.93;17.33;;;;;;;-1.78;100.00;96780.31;5034024;28;101932;-71
2023/01/22 04:03:49;;;;;;;28.00;17.07;;;;;;;-1.92;100.00;96789.59;5012639;28;105557;-71
2023/01/22 04:06:17;;;;;;;28.13;17.57;;;;;;;-1.94;100.00;96785.53;5029813;28;102291;-71
2023/01/22 04:08:46;;;;;;;27.60;16.27;;;;;;;-1.98;100.00;96782.44;5030176;28;104854;-71
2023/01/22 04:11:14;;;;;;;28.43;17.63;;;;;;;-1.88;100.00;96780.47;5029596;28;105045;-71
2023/01/22 04:13:45;;;;;;;26.10;16.50;;;;;;;-1.83;100.00;96786.00;5013347;28;102113;-71
2023/01/22 04:16:14;;;;;;;27.10;17.23;;;;;;;-1.78;100.00;96786.34;5030451;28;104651;-71
2023/01/22 04:19:10;;;;;;;25.90;15.90;;;;;;;-1.83;100.00;96788.63;5026207;28;105299;-71
2023/01/22 04:22:01;;;;;;;27.27;17.53;;;;;;;-1.89;100.00;96793.66;5019233;27;101969;-71
2023/01/22 04:24:28;;;;;;;26.63;16.67;;;;;;;-2.03;100.00;96786.53;5032816;28;105432;-71
2023/01/22 04:26:55;;;;;;;25.57;16.20;;;;;;;-1.97;100.00;96793.69;5030361;28;101758;-71
2023/01/22 04:29:23;;;;;;;25.00;15.70;;;;;;;-1.98;100.00;96795.47;5064047;27;105735;-71
2023/01/22 04:31:52;;;;;;;25.63;16.30;;;;;;;-2.00;100.00;96794.00;5029084;28;105434;-70
2023/01/22 04:34:20;;;;;;;24.03;16.33;;;;;;;-2.10;100.00;96801.16;5030968;27;101909;-70
2023/01/22 04:37:06;;;;;;;24.10;16.00;;;;;;;-2.20;100.00;96801.31;5015951;28;102591;-70
2023/01/22 04:39:37;;;;;;;28.27;17.33;;;;;;;-2.29;100.00;96799.66;5028609;28;104234;-70
2023/01/22 04:42:04;;;;;;;26.87;15.20;;;;;;;-2.32;100.00;96802.63;5029791;28;101823;-71
2023/01/22 04:44:37;;;;;;;25.77;16.50;;;;;;;-2.38;100.00;96802.44;5029404;28;104625;-71
2023/01/22 04:47:07;;;;;;;27.53;16.93;;;;;;;-2.35;100.00;96805.53;5032793;28;105265;-70
2023/01/22 04:49:34;;;;;;;27.50;16.23;;;;;;;-2.60;100.00;96809.06;5029512;28;105544;-70
2023/01/22 04:52:01;;;;;;;27.73;16.73;;;;;;;-2.65;100.00;96802.72;5029153;28;105128;-70
2023/01/22 04:54:29;;;;;;;27.50;16.40;;;;;;;-2.61;100.00;96815.25;5028849;28;101959;-70
2023/01/22 04:56:59;;;;;;;23.67;15.20;;;;;;;-2.64;100.00;96818.16;5029837;28;103832;-70
2023/01/22 04:59:26;;;;;;;28.63;16.70;;;;;;;-2.51;100.00;96818.50;5028840;28;105948;-71
2023/01/22 05:01:56;;;;;;;30.37;16.97;;;;;;;-2.50;100.00;96820.16;5029866;28;101733;-70
2023/01/22 05:04:25;;;;;;;24.60;15.57;;;;;;;-2.61;100.00;96820.47;5029019;27;105211;-70
2023/01/22 05:06:51;;;;;;;23.97;14.97;;;;;;;-2.66;100.00;96824.50;5028758;28;105092;-70
2023/01/22 05:09:21;;;;;;;23.70;15.03;;;;;;;-2.89;100.00;96821.66;5033175;28;101980;-70
2023/01/22 05:11:53;;;;;;;24.77;14.40;;;;;;;-2.90;100.00;96817.44;5028906;28;105669;-70
2023/01/22 05:14:23;;;;;;;25.27;15.60;;;;;;;-2.94;100.00;96829.16;5029402;28;102087;-70
2023/01/22 05:16:53;;;;;;;28.07;16.50;;;;;;;-2.77;100.00;96828.22;5028579;28;105549;-70
2023/01/22 05:19:22;;;;;;;22.07;13.53;;;;;;;-2.66;100.00;96825.34;5027620;28;106062;-70
2023/01/22 05:21:49;;;;;;;22.80;14.50;;;;;;;-2.56;100.00;96828.63;5029147;28;102153;-70
2023/01/22 05:24:20;;;;;;;25.27;15.47;;;;;;;-2.62;100.00;96836.25;5029079;28;105225;-70
2023/01/22 05:26:48;;;;;;;25.10;14.50;;;;;;;-2.64;100.00;96838.16;5028958;28;105381;-70
2023/01/22 05:29:28;;;;;;;21.73;14.37;;;;;;;-2.55;100.00;96840.66;5066267;27;101993;-70
2023/01/22 05:32:14;;;;;;;23.73;14.43;;;;;;;-2.50;100.00;96841.00;5028715;28;105924;-70
2023/01/22 05:34:47;;;;;;;25.70;14.27;;;;;;;-2.44;100.00;96849.94;5063161;27;102207;-70
2023/01/22 05:37:16;;;;;;;21.53;13.97;;;;;;;-2.36;100.00;96848.19;5029289;28;105485;-70
2023/01/22 05:39:43;;;;;;;24.33;14.13;;;;;;;-2.40;100.00;96852.06;5027709;28;105340;-70
2023/01/22 05:42:14;;;;;;;24.33;15.00;;;;;;;-2.36;100.00;96858.59;5028426;27;101933;-70
2023/01/22 05:44:43;;;;;;;24.23;15.17;;;;;;;-2.30;100.00;96857.94;5028467;28;103899;-71
2023/01/22 05:47:13;;;;;;;25.53;15.30;;;;;;;-2.26;100.00;96855.84;5028480;27;102920;-70
2023/01/22 05:50:06;;;;;;;26.27;15.53;;;;;;;-2.25;100.00;96855.69;5025663;28;102105;-70
2023/01/22 05:52:34;;;;;;;27.67;15.90;;;;;;;-2.32;100.00;96856.47;5031619;28;104768;-70
2023/01/22 05:55:02;;;;;;;28.93;16.00;;;;;;;-2.27;100.00;96857.66;5028351;28;101867;-70
2023/01/22 05:57:39;;;;;;;28.23;16.53;;;;;;;-2.26;100.00;96861.88;5027863;28;105273;-70
2023/01/22 06:00:10;;;;;;;28.10;15.27;;;;;;;-2.25;100.00;96857.50;5028003;28;105062;-70
2023/01/22 06:02:45;;;;;;;24.37;15.00;;;;;;;-2.22;100.00;96855.38;5026977;27;102007;-70
2023/01/22 06:05:16;;;;;;;27.40;15.53;;;;;;;-2.22;100.00;96850.16;5028394;28;105437;-70
2023/01/22 06:07:47;;;;;;;23.83;14.63;;;;;;;-2.23;100.00;96856.34;5027982;28;103686;-70
2023/01/22 06:10:14;;;;;;;25.77;15.17;;;;;;;-2.22;100.00;96857.16;5027871;28;101863;-70
2023/01/22 06:12:47;;;;;;;25.87;16.07;;;;;;;-2.28;100.00;96853.41;5028513;28;104930;-70
2023/01/22 06:15:14;;;;;;;30.67;15.93;;;;;;;-2.23;100.00;96852.91;5031058;28;105078;-70
2023/01/22 06:17:47;;;;;;;28.80;16.40;;;;;;;-2.08;100.00;96859.13;5027123;27;102826;-70
2023/01/22 06:20:16;;;;;;;26.70;16.03;;;;;;;-2.00;100.00;96857.34;5027331;28;105462;-70
2023/01/22 06:22:42;;;;;;;29.97;16.47;;;;;;;-1.92;100.00;96862.56;5028016;28;101967;-70
2023/01/22 06:25:11;;;;;;;25.47;15.67;;;;;;;-1.97;100.00;96864.03;5028160;28;104807;-70
2023/01/22 06:27:56;;;;;;;26.73;15.90;;;;;;;-1.93;100.00;96860.09;5028165;28;104882;-69
2023/01/22 06:30:24;;;;;;;24.47;15.60;;;;;;;-1.94;100.00;96859.31;5028290;28;101776;-68
2023/01/22 06:32:52;;;;;;;27.10;16.77;;;;;;;-2.02;100.00;96861.91;5028126;28;105328;-68
2023/01/22 06:35:21;;;;;;;27.30;16.40;;;;;;;-2.05;100.00;96861.41;5027155;28;105539;-68
2023/01/22 06:37:50;;;;;;;25.63;16.13;;;;;;;-1.95;100.00;96868.13;5031019;28;101837;-68
2023/01/22 06:40:17;;;;;;;26.83;17.63;;;;;;;-2.17;100.00;96871.34;5027458;28;105565;-68
2023/01/22 06:42:46;;;;;;;26.73;16.77;;;;;;;-1.94;100.00;96874.13;5027812;28;102563;-68
2023/01/22 06:45:13;;;;;;;28.50;18.37;;;;;;;-1.91;100.00;96879.81;5027461;28;104986;-68
2023/01/22 06:47:46;;;;;;;30.87;19.57;;;;;;;-1.98;100.00;96884.06;5007282;28;105601;-68
2023/01/22 06:50:16;;;;;;;31.93;19.40;;;;;;;-2.01;100.00;96878.34;5007639;28;101948;-68
2023/01/22 06:52:48;;;;;;;30.87;19.27;;;;;;;-1.88;100.00;96884.72;5041404;27;105328;-68
2023/01/22 06:55:22;;;;;;;34.10;19.47;;;;;;;-1.91;100.00;96885.03;5006750;28;104973;-68
2023/01/22 06:57:52;;;;;;;32.60;19.67;;;;;;;-1.93;100.00;96876.56;5007310;28;101864;-68
2023/01/22 07:00:20;;;;;;;28.47;18.73;;;;;;;-2.01;100.00;96883.56;4994200;28;105130;-68
2023/01/22 07:02:47;;;;;;;35.17;20.17;;;;;;;-1.92;100.00;96888.63;5012004;28;101860;-68
2023/01/22 07:05:14;;;;;;;30.63;18.60;;;;;;;-1.85;100.00;96887.03;5044667;27;105538;-68
2023/01/22 07:07:42;;;;;;;30.03;20.17;;;;;;;-1.72;100.00;96887.34;5010543;28;105491;-68
2023/01/22 07:10:12;;;;;;;29.67;18.20;;;;;;;-1.73;100.00;96890.09;5011060;28;102046;-68
2023/01/22 07:12:40;;;;;;;53.03;29.07;;;;;;;-1.76;100.00;96893.84;5010729;28;105285;-68
2023/01/22 07:15:08;;;;;;;45.10;25.70;;;;;;;-1.63;100.00;96891.59;5010652;28;105642;-68
2023/01/22 07:17:37;;;;;;;42.87;23.03;;;;;;;-1.67;100.00;96900.72;5011175;28;102456;-69
2023/01/22 07:20:04;;;;;;;39.27;22.33;;;;;;;-1.59;100.00;96902.50;5010159;28;105674;-68
2023/01/22 07:22:32;;;;;;;37.23;20.67;;;;;;;-1.51;100.00;96900.72;5012773;28;105454;-68
2023/01/22 07:24:59;;;;;;;35.30;19.03;;;;;;;-1.64;100.00;96895.16;5010260;28;105469;-68
2023/01/22 07:27:29;;;;;;;37.43;20.80;;;;;;;-1.55;100.00;96898.56;5009445;28;105861;-68
2023/01/22 07:29:56;;;;;;;47.40;26.37;;;;;;;-1.47;100.00;96903.81;5043398;27;102232;-68
2023/01/22 07:32:23;;;;;;;91.97;43.70;;;;;;;-1.44;100.00;96904.28;5009913;28;105329;-68
2023/01/22 07:34:49;;;;;;;57.70;29.43;;;;;;;-1.45;100.00;96897.44;5009384;28;104322;-69
2023/01/22 07:37:16;;;;;;;61.10;28.80;;;;;;;-1.34;100.00;96899.72;5009468;28;101971;-69
2023/01/22 07:39:43;;;;;;;53.20;27.33;;;;;;;-1.21;100.00;96910.44;5009847;28;105480;-69
2023/01/22 07:42:11;;;;;;;37.10;21.07;;;;;;;-1.11;100.00;96899.88;5012771;28;105681;-68
2023/01/22 07:44:40;;;;;;;39.27;21.63;;;;;;;-1.13;100.00;96905.25;5011208;28;102308;-68
2023/01/22 07:47:08;;;;;;;31.10;20.30;;;;;;;-1.05;100.00;96899.19;5009387;28;104182;-68
2023/01/22 07:49:35;;;;;;;33.93;20.43;;;;;;;-1.11;100.00;96903.25;5009444;28;101944;-68
2023/01/22 07:52:02;;;;;;;30.27;18.07;;;;;;;-1.13;100.00;96901.81;5043299;27;105240;-68
2023/01/22 07:54:29;;;;;;;34.83;20.87;;;;;;;-1.23;100.00;96904.59;5009160;28;105486;-68
2023/01/22 07:56:56;;;;;;;31.97;19.47;;;;;;;-1.00;100.00;96907.34;5009582;28;102669;-68
2023/01/22 07:59:23;;;;;;;32.40;19.83;;;;;;;-1.06;100.00;96916.63;5010113;28;105207;-68
2023/01/22 08:01:53;;;;;;;32.23;19.83;;;;;;;-0.81;100.00;96918.22;5009724;28;105825;-68
2023/01/22 08:04:20;;;;;;;30.83;19.77;;;;;;;-0.97;100.00;96920.88;5015341;28;101896;-68
2023/01/22 08:06:47;;;;;;;30.30;19.23;;;;;;;-0.95;100.00;96926.72;5009923;28;105231;-68
2023/01/22 08:09:22;;;;;;;50.90;26.70;;;;;;;-0.81;100.00;96933.88;5010280;28;101800;-69
2023/01/22 08:11:48;;;;;;;41.97;25.20;;;;;;;-0.82;100.00;96927.00;5011149;28;102276;-68
2023/01/22 08:14:15;;;;;;;32.57;20.47;;;;;;;-0.81;100.00;96928.66;5043474;27;105409;-68
2023/01/22 08:16:42;;;;;;;32.60;20.57;;;;;;;-0.91;100.00;96938.47;5009840;28;101822;-68
2023/01/22 08:19:11;;;;;;;123.07;64.53;;;;;;;-0.87;100.00;96937.16;5009722;28;104769;-68
2023/01/22 08:21:38;;;;;;;55.33;32.77;;;;;;;-0.72;100.00;96951.16;5009056;28;105520;-68
2023/01/22 08:24:07;;;;;;;84.87;49.73;;;;;;;-0.86;100.00;96957.06;5011005;28;102057;-69
2023/01/22 08:26:33;;;;;;;59.33;35.57;;;;;;;-0.49;100.00;96959.09;5012528;28;104082;-68
2023/01/22 08:29:00;;;;;;;37.77;23.53;;;;;;;-0.21;100.00;96958.50;5009101;28;102082;-68
2023/01/22 08:31:27;;;;;;;73.30;42.30;;;;;;;-0.09;100.00;96962.34;5009194;28;105295;-68
2023/01/22 08:33:54;;;;;;;54.10;32.40;;;;;;;0.23;100.00;96959.56;5009048;28;105459;-68
2023/01/22 08:36:22;;;;;;;37.73;23.00;;;;;;;0.31;100.00;96964.75;5009525;28;102182;-68
2023/01/22 08:38:49;;;;;;;54.13;32.40;;;;;;;0.22;100.00;96958.75;5010217;28;103077;-68
2023/01/22 08:41:16;;;;;;;31.50;20.33;;;;;;;0.52;100.00;96962.31;5008481;28;104543;-68
2023/01/22 08:43:43;;;;;;;36.57;22.90;;;;;;;0.42;100.00;96965.19;5008764;28;102096;-68
2023/01/22 08:46:10;;;;;;;31.07;19.20;;;;;;;0.55;100.00;96970.63;5008831;28;105738;-68
2023/01/22 08:48:38;;;;;;;55.30;33.37;;;;;;;0.46;100.00;96971.69;5011930;28;105004;-68
2023/01/22 08:51:05;;;;;;;38.37;22.80;;;;;;;0.61;100.00;96969.94;5008744;28;103778;-68
2023/01/22 08:53:34;;;;;;;30.17;20.10;;;;;;;0.66;100.00;96970.22;5007892;28;105337;-68
2023/01/22 08:56:00;;;;;;;30.50;19.80;;;;;;;1.15;100.00;96970.66;5008805;28;101801;-68
2023/01/22 08:58:27;;;;;;;24.23;16.37;;;;;;;1.27;100.00;96972.63;5008780;28;104766;-68
2023/01/22 09:00:54;;;;;;;23.83;16.27;;;;;;;0.96;100.00;96976.38;5007928;28;105672;-68
2023/01/22 09:03:22;;;;;;;23.73;16.27;;;;;;;1.39;100.00;96988.75;5008218;28;101871;-68
2023/01/22 09:05:49;;;;;;;21.70;15.43;;;;;;;1.74;100.00;96978.38;5008539;28;104834;-68
2023/01/22 09:08:16;;;;;;;20.37;14.37;;;;;;;1.68;100.00;96979.09;5008063;28;105796;-68
2023/01/22 09:10:45;;;;;;;23.17;14.97;;;;;;;1.38;100.00;96980.06;5011893;28;102015;-68
2023/01/22 09:13:11;;;;;;;22.07;15.63;;;;;;;1.57;100.00;96986.59;5008001;28;105953;-68
2023/01/22 09:15:40;;;;;;;52.40;30.27;;;;;;;1.06;100.00;96985.63;5009837;28;101803;-68
2023/01/22 09:18:07;;;;;;;33.40;21.03;;;;;;;1.18;100.00;96997.31;5007899;28;104953;-68
2023/01/22 09:20:34;;;;;;;34.50;22.13;;;;;;;0.95;100.00;96993.06;5009579;28;102575;-68
2023/01/22 09:23:01;;;;;;;27.33;17.73;;;;;;;1.30;100.00;96995.03;5007791;28;101972;-68
2023/01/22 09:25:28;;;;;;;26.37;18.33;;;;;;;1.27;100.00;96993.59;5007607;28;104807;-68
2023/01/22 09:28:00;;;;;;;26.53;18.00;;;;;;;1.16;100.00;97001.09;5007791;28;105522;-68
2023/01/22 09:30:28;;;;;;;20.57;15.27;;;;;;;1.38;100.00;97000.22;5008182;28;101997;-68
2023/01/22 09:32:55;;;;;;;20.03;14.37;;;;;;;1.35;100.00;97006.63;5010970;28;105199;-68
2023/01/22 09:35:22;;;;;;;24.60;14.83;;;;;;;1.38;100.00;97008.88;5008222;28;101758;-68
2023/01/22 09:37:49;;;;;;;22.80;14.57;;;;;;;1.10;100.00;97009.66;5009403;28;102971;-68
2023/01/22 09:40:24;;;;;;;22.90;15.13;;;;;;;0.98;100.00;96997.94;5008875;28;102591;-68
2023/01/22 09:42:56;;;;;;;21.30;14.23;;;;;;;1.06;100.00;97001.34;5009668;28;102337;-68
2023/01/22 09:45:27;;;;;;;19.63;14.70;;;;;;;1.12;100.00;96998.00;5008068;28;104980;-68
2023/01/22 09:47:58;;;;;;;23.33;14.97;;;;;;;1.24;100.00;96998.38;5006953;28;105383;-68
2023/01/22 09:50:28;;;;;;;16.83;12.73;;;;;;;1.22;100.00;97003.00;5009448;28;101853;-68
2023/01/22 09:52:59;;;;;;;16.30;12.53;;;;;;;1.20;100.00;97000.53;5010399;28;104611;-68
2023/01/22 09:55:30;;;;;;;17.33;12.73;;;;;;;1.44;100.00;97002.13;5008058;28;101822;-68
2023/01/22 09:58:01;;;;;;;18.70;13.00;;;;;;;1.58;100.00;96998.72;5007807;28;105509;-68
2023/01/22 10:00:39;;;;;;;18.23;12.83;;;;;;;1.75;100.00;96994.94;5006882;28;105347;-68
2023/01/22 10:03:12;;;;;;;15.73;11.60;;;;;;;1.21;100.00;97001.38;5007751;28;102249;-68
2023/01/22 10:05:44;;;;;;;18.87;13.13;;;;;;;1.92;100.00;96996.38;5024167;28;104922;-68
2023/01/22 10:08:14;;;;;;;16.37;12.20;;;;;;;2.37;100.00;96996.09;5028641;27;102520;-68
2023/01/22 10:10:41;;;;;;;15.87;12.13;;;;;;;2.07;100.00;96994.56;5010659;28;101918;-68
2023/01/22 10:13:14;;;;;;;16.00;12.33;;;;;;;2.26;100.00;96983.47;5027793;28;104824;-68
2023/01/22 10:15:43;;;;;;;16.67;12.00;;;;;;;2.64;100.00;96992.78;5032240;27;102779;-68
2023/01/22 10:18:24;;;;;;;15.17;11.77;;;;;;;2.32;100.00;96983.56;5027095;28;104174;-68
2023/01/22 10:20:52;;;;;;;15.27;11.93;;;;;;;2.18;100.00;96983.59;5028300;27;102999;-68
2023/01/22 10:23:21;;;;;;;13.97;11.20;;;;;;;1.14;100.00;96984.72;5028681;27;102144;-68
2023/01/22 10:25:48;;;;;;;15.73;11.37;;;;;;;1.71;100.00;96977.94;5027264;28;104125;-68
2023/01/22 10:28:16;;;;;;;14.80;12.20;;;;;;;1.77;100.00;96987.69;5026665;28;105487;-68
2023/01/22 10:30:48;;;;;;;16.53;12.33;;;;;;;2.15;100.00;96978.69;5028644;27;101763;-68
2023/01/22 10:33:20;;;;;;;14.83;11.13;;;;;;;2.43;100.00;96988.31;5027219;28;104807;-68
2023/01/22 10:35:49;;;;;;;18.83;14.00;;;;;;;2.79;100.00;96975.94;5028672;27;105097;-64
2023/01/22 10:38:25;;;;;;;18.70;14.50;;;;;;;2.05;100.00;96975.53;5034282;28;101884;-64
2023/01/22 10:40:55;;;;;;;22.17;16.43;;;;;;;1.80;100.00;96988.13;5030039;28;105877;-64
2023/01/22 10:43:24;;;;;;;20.90;15.70;;;;;;;1.55;100.00;96996.44;5030692;28;101938;-64
2023/01/22 10:45:54;;;;;;;19.03;14.80;;;;;;;1.72;100.00;96990.84;5030871;28;105104;-64
2023/01/22 10:48:22;;;;;;;23.80;16.73;;;;;;;0.99;100.00;96989.91;5030172;28;106070;-64
2023/01/22 10:51:00;;;;;;;49.77;31.63;;;;;;;1.37;100.00;96998.59;5030250;28;102079;-64
2023/01/22 10:53:33;;;;;;;22.20;16.47;;;;;;;1.15;100.00;97002.09;5030630;28;105670;-64
2023/01/22 10:56:02;;;;;;;22.80;16.37;;;;;;;0.93;100.00;96997.69;5030266;28;105631;-64
2023/01/22 10:58:33;;;;;;;22.53;16.47;;;;;;;0.85;100.00;96995.94;5030605;28;102104;-64
2023/01/22 11:01:04;;;;;;;20.67;14.50;;;;;;;0.27;100.00;97003.50;5032976;28;104024;-64
2023/01/22 11:03:34;;;;;;;21.97;15.80;;;;;;;0.40;100.00;97000.34;5030462;28;102032;-64
2023/01/22 11:06:06;;;;;;;20.63;15.13;;;;;;;0.42;100.00;97003.59;5030312;28;105431;-64
2023/01/22 11:08:51;;;;;;;22.13;15.03;;;;;;;0.49;100.00;97001.91;5029655;28;105759;-64
2023/01/22 11:11:23;;;;;;;24.33;16.80;;;;;;;0.15;100.00;97001.44;5030389;28;101791;-64
2023/01/22 11:13:54;;;;;;;24.23;16.10;;;;;;;0.35;100.00;97007.88;5030372;28;105379;-64
2023/01/22 11:16:24;;;;;;;22.10;16.27;;;;;;;0.40;100.00;97000.34;5029666;28;106017;-64
2023/01/22 11:18:56;;;;;;;23.70;16.00;;;;;;;0.39;100.00;97001.34;5029769;28;101962;-64
2023/01/22 11:21:27;;;;;;;24.50;16.57;;;;;;;0.42;100.00;96995.75;5030222;28;104067;-64
2023/01/22 11:24:00;;;;;;;25.00;17.50;;;;;;;0.35;100.00;96994.81;5034190;28;102772;-64
2023/01/22 11:26:43;;;;;;;23.97;17.67;;;;;;;0.55;100.00;96996.00;5030038;28;105829;-64